ADDS METAR Data INFO
IDs: Format: Raw Decoded Include TAF

Data at: 0730 UTC 18 Oct 2017

KCKP 180715Z AUTO 00000KT 10SM CLR 06/06 A2991 RMK AO2 T00600060
KCKP 180655Z AUTO 00000KT 10SM CLR 07/07 A2992 RMK AO2 T00670067
KCKP 180635Z AUTO 00000KT 10SM CLR 07/07 A2992 RMK AO2 T00670066
KCKP 180615Z AUTO 00000KT 10SM CLR 07/07 A2993 RMK AO2 T00700070
KCKP 180555Z AUTO 00000KT 10SM CLR 07/07 A2994 RMK AO2 T00690066 10156 20068 402300035
KCKP 180535Z AUTO 00000KT 10SM CLR 07/06 A2995 RMK AO2 T00710063
KCKP 180515Z AUTO 00000KT 10SM CLR 09/07 A2995 RMK AO2 T00880069
KCKP 180455Z AUTO 16004KT 10SM CLR 09/07 A2996 RMK AO2 T00860069
KCKP 180435Z AUTO 00000KT 10SM CLR 09/08 A2996 RMK AO2 T00910075
KCKP 180415Z AUTO 16003KT 10SM CLR 09/07 A2996 RMK AO2 T00860069
KCKP 180355Z AUTO 16003KT 10SM CLR 10/08 A2997 RMK AO2 T00960076
KCKP 180335Z AUTO 00000KT 10SM CLR 10/08 A2997 RMK AO2 T00990076
KCKP 180315Z AUTO 16003KT 10SM CLR 10/08 A2997 RMK AO2 T00990076
KCKP 180255Z AUTO 15004KT 10SM CLR 10/08 A2997 RMK AO2 T00990076
KCKP 180235Z AUTO 18003KT 10SM CLR 10/08 A2997 RMK AO2 T01030075
KCKP 180215Z AUTO 16005KT 10SM CLR 11/08 A2997 RMK AO2 T01120083
KCKP 180155Z AUTO 16004KT 10SM CLR 11/08 A2998 RMK AO2 T01070078
KCKP 180135Z AUTO 16004KT 10SM CLR 12/08 A2998 RMK AO2 T01190080
KCKP 180115Z AUTO 17005KT 10SM CLR 13/07 A2998 RMK AO2 T01280074
KCKP 180055Z AUTO 16007KT 10SM CLR 14/08 A2998 RMK AO2 T01360075
KCKP 180035Z AUTO 17005KT 10SM CLR 14/08 A2998 RMK AO2 T01400075
KCKP 180015Z AUTO 16005KT 10SM CLR 15/08 A2997 RMK AO2 T01510075
KCKP 172355Z AUTO 16005KT 10SM CLR 16/08 A2997 RMK AO2 T01570076 10230 20157
KCKP 172335Z AUTO 17005KT 10SM CLR 17/07 A2997 RMK AO2 T01740073
KCKP 172315Z AUTO 20004KT 7SM CLR 18/08 A2996 RMK AO2 T01780082
KCKP 172255Z AUTO 20004KT 7SM CLR 19/09 A2997 RMK AO2 T01870090
KCKP 172235Z AUTO 20005KT 10SM CLR 20/09 A2997 RMK AO2 T02030090
KCKP 172215Z AUTO 21006KT 10SM CLR 21/08 A2997 RMK AO2 T02130079
KCKP 172155Z AUTO 21006KT 10SM CLR 22/08 A2997 RMK AO2 T02170080
KCKP 172135Z AUTO 20005KT 10SM CLR 22/08 A2997 RMK AO2 T02210082
KCKP 172115Z AUTO 21007KT 10SM CLR 23/07 A2998 RMK AO2 T02270072
KCKP 172055Z AUTO 22006KT 10SM CLR 23/07 A2998 RMK AO2 T02270065
KCKP 172035Z AUTO 21003KT 10SM CLR 23/09 A2999 RMK AO2 T02280086
KCKP 172015Z AUTO 20004KT 10SM CLR 23/07 A2999 RMK AO2 T02280074
KCKP 171955Z AUTO 20003KT 10SM CLR 23/08 A3000 RMK AO2 T02280078
KCKP 171935Z AUTO 21003KT 10SM CLR 22/07 A3000 RMK AO2 T02220070
KCKP 171915Z AUTO 20005KT 10SM CLR 22/08 A3001 RMK AO2 T02200080
KCKP 171855Z AUTO 23003KT 10SM CLR 22/08 A3002 RMK AO2 T02160077
KCKP 171835Z AUTO 23004KT 10SM CLR 21/08 A3003 RMK AO2 T02100081
KCKP 171815Z AUTO 17005KT 10SM CLR 21/09 A3004 RMK AO2 T02050086
KCKP 171755Z AUTO 23005KT 10SM CLR 20/08 A3004 RMK AO2 T01960080 10196 20035
KCKP 171735Z AUTO 20005KT 10SM CLR 19/08 A3005 RMK AO2 T01900084
KCKP 171715Z AUTO 20005KT 10SM CLR 18/08 A3006 RMK AO2 T01800084
KCKP 171655Z AUTO 20003KT 10SM CLR 17/09 A3006 RMK AO2 T01690088
KCKP 171635Z AUTO 21005KT 10SM CLR 16/09 A3007 RMK AO2 T01590087
KCKP 171615Z AUTO 18005KT 10SM CLR 15/08 A3008 RMK AO2 T01490083
KCKP 171555Z AUTO 17005KT 10SM CLR 14/08 A3008 RMK AO2 T01410082
KCKP 171535Z AUTO 20004KT 10SM CLR 14/08 A3008 RMK AO2 T01350078
KCKP 171515Z AUTO 21005KT 10SM CLR 13/07 A3008 RMK AO2 T01260073
KCKP 171455Z AUTO 23006KT 10SM CLR 12/07 A3009 RMK AO2 T01190072
KCKP 171435Z AUTO 22005KT 10SM CLR 11/08 A3009 RMK AO2 T01080076
KCKP 171415Z AUTO 00000KT 10SM CLR 09/07 A3009 RMK AO2 T00890071
KCKP 171355Z AUTO 00000KT 10SM CLR 07/06 A3009 RMK AO2 T00700061
KCKP 171335Z AUTO 00000KT 10SM CLR 06/05 A3008 RMK AO2 T00600052
KCKP 171315Z AUTO 17006KT 10SM CLR 06/05 A3006 RMK AO2 T00610054
KCKP 171255Z AUTO 00000KT 10SM CLR 04/04 A3006 RMK AO2 T00380035
KCKP 171235Z AUTO 00000KT 10SM CLR 05/05 A3006 RMK AO2 T00500047
KCKP 171215Z AUTO 00000KT 10SM CLR 05/04 A3007 RMK AO2 T00520044
KCKP 171155Z AUTO 00000KT 10SM CLR 05/04 A3006 RMK AO2 T00520044 10105 20048
KCKP 171135Z AUTO 00000KT 10SM CLR 05/04 A3006 RMK AO2 T00510041
KCKP 171115Z AUTO 00000KT 10SM CLR 06/05 A3006 RMK AO2 T00620049
KCKP 171055Z AUTO 00000KT 10SM CLR 07/05 A3007 RMK AO2 T00650046
KCKP 171035Z AUTO 00000KT 10SM CLR 07/05 A3006 RMK AO2 T00680050
KCKP 171015Z AUTO 00000KT 10SM CLR 07/06 A3006 RMK AO2 T00670055
KCKP 170955Z AUTO 20003KT 10SM CLR 05/05 A3006 RMK AO2 T00540046
KCKP 170935Z AUTO 18003KT 10SM CLR 06/05 A3006 RMK AO2 T00580053
KCKP 170915Z AUTO 19003KT 10SM CLR 06/05 A3006 RMK AO2 T00590049
KCKP 170855Z AUTO 19004KT 10SM CLR 08/06 A3006 RMK AO2 T00750055
KCKP 170835Z AUTO 18005KT 10SM CLR 05/04 A3006 RMK AO2 T00480041
KCKP 170815Z AUTO 19003KT 10SM CLR 06/04 A3006 RMK AO2 T00570039
KCKP 170755Z AUTO 17004KT 10SM CLR 07/05 A3007 RMK AO2 T00660050
KCKP 170735Z AUTO 00000KT 10SM CLR 06/04 A3007 RMK AO2 T00570040
KCKP 170715Z AUTO 00000KT 10SM CLR 09/05 A3007 RMK AO2 T00850050
KCKP 170655Z AUTO 03004KT 10SM CLR 09/05 A3007 RMK AO2 T00900049
KCKP 170635Z AUTO 00000KT 10SM CLR 10/05 A3005 RMK AO2 T00970047
KCKP 170615Z AUTO 20005KT 10SM CLR 10/05 A3004 RMK AO2 T00960050
KCKP 170555Z AUTO 20004KT 10SM CLR 09/05 A3005 RMK AO2 T00920045 10155 20092 402101012
KCKP 170535Z AUTO 00000KT 10SM CLR 11/05 A3004 RMK AO2 T01050046
KCKP 170515Z AUTO 20004KT 10SM CLR 10/05 A3004 RMK AO2 T01030048
KCKP 170455Z AUTO 20006KT 10SM CLR 11/05 A3004 RMK AO2 T01060050
KCKP 170435Z AUTO 20006KT 10SM CLR 10/05 A3004 RMK AO2 T01020050
KCKP 170415Z AUTO 20007KT 10SM CLR 10/05 A3004 RMK AO2 T00980050
KCKP 170355Z AUTO 19003KT 10SM CLR 11/05 A3005 RMK AO2 T01080047
KCKP 170335Z AUTO 17003KT 10SM CLR 10/05 A3006 RMK AO2 T01030046
KCKP 170315Z AUTO 16004KT 10SM CLR 10/04 A3006 RMK AO2 T01020044
KCKP 170255Z AUTO 18005KT 10SM CLR 11/05 A3006 RMK AO2 T01080045
KCKP 170235Z AUTO 18003KT 10SM CLR 12/04 A3006 RMK AO2 T01190042
KCKP 170215Z AUTO 17004KT 10SM CLR 12/05 A3005 RMK AO2 T01210045
KCKP 170155Z AUTO 18008KT 10SM CLR 13/05 A3004 RMK AO2 T01300046
KCKP 170135Z AUTO 18006KT 10SM CLR 14/05 A3005 RMK AO2 T01390045
KCKP 170115Z AUTO 17007KT 10SM CLR 14/05 A3006 RMK AO2 T01380045
KCKP 170055Z AUTO 17007KT 10SM CLR 14/05 A3006 RMK AO2 T01430045
KCKP 170035Z AUTO 18006KT 10SM CLR 15/05 A3006 RMK AO2 T01450046
KCKP 170015Z AUTO 17008KT 10SM CLR 15/05 A3005 RMK AO2 T01500045
KCKP 162355Z AUTO 17008KT 10SM CLR 16/05 A3005 RMK AO2 T01560046 10210 20156
KCKP 162335Z AUTO 18008KT 10SM CLR 17/05 A3005 RMK AO2 T01650045
KCKP 162315Z AUTO 19007KT 10SM CLR 18/05 A3006 RMK AO2 T01750047
KCKP 162255Z AUTO 19009KT 10SM CLR 18/05 A3006 RMK AO2 T01770046
KCKP 162235Z AUTO 20011KT 10SM CLR 20/03 A3006 RMK AO2 T02000034
KCKP 162215Z AUTO 21011G14KT 10SM CLR 20/04 A3007 RMK AO2 T02000038
KCKP 162155Z AUTO 21011G17KT 10SM CLR 21/03 A3007 RMK AO2 T02060031
KCKP 162135Z AUTO 21011G17KT 10SM CLR 21/03 A3008 RMK AO2 T02100034
KCKP 162115Z AUTO 20015G19KT 10SM CLR 21/03 A3008 RMK AO2 T02100031
KCKP 162055Z AUTO 21018KT 10SM CLR 21/03 A3008 RMK AO2 T02080031
KCKP 162035Z AUTO 21013G19KT 10SM CLR 21/03 A3010 RMK AO2 T02050032
KCKP 162015Z AUTO 20010G15KT 10SM CLR 21/03 A3011 RMK AO2 T02060034
KCKP 161955Z AUTO 21013G17KT 10SM CLR 21/03 A3011 RMK AO2 T02060034
KCKP 161935Z AUTO 21015G18KT 10SM CLR 21/03 A3013 RMK AO2 T02050031